createdAt,value
2018-08-30T00:04:36.192Z,17.73
2018-08-30T00:07:05.986Z,17.70
2018-08-30T00:09:36.305Z,18.90
2018-08-30T00:12:05.032Z,17.87
2018-08-30T00:14:34.317Z,18.73
2018-08-30T00:17:03.443Z,17.40
2018-08-30T00:19:32.872Z,16.27
2018-08-30T00:22:02.039Z,17.17
2018-08-30T00:24:30.233Z,16.40
2018-08-30T00:26:58.508Z,15.60
2018-08-30T00:29:26.893Z,16.97
2018-08-30T00:31:55.052Z,14.77
2018-08-30T00:34:24.778Z,17.10
2018-08-30T00:36:53.935Z,16.73
2018-08-30T00:39:26.091Z,16.73
2018-08-30T00:41:54.426Z,16.27
2018-08-30T00:44:23.164Z,16.23
2018-08-30T00:46:51.398Z,16.90
2018-08-30T00:49:20.678Z,14.73
2018-08-30T00:51:49.225Z,15.47
2018-08-30T00:54:17.432Z,14.70
2018-08-30T00:56:45.708Z,15.50
2018-08-30T00:59:14.012Z,15.13
2018-08-30T01:01:42.415Z,14.80
2018-08-30T01:04:11.577Z,13.93
2018-08-30T01:06:40.288Z,13.47
2018-08-30T01:09:09.269Z,13.83
2018-08-30T01:11:41.759Z,14.07
2018-08-30T01:14:10.204Z,13.60
2018-08-30T01:16:38.497Z,11.57
2018-08-30T01:19:06.945Z,12.07
2018-08-30T01:21:35.122Z,10.33
2018-08-30T01:24:03.345Z,10.87
2018-08-30T01:26:31.509Z,10.67
2018-08-30T01:28:59.815Z,10.40
2018-08-30T01:31:28.857Z,11.47
2018-08-30T01:33:57.378Z,11.83
2018-08-30T01:36:25.814Z,13.93
2018-08-30T01:38:54.327Z,14.60
2018-08-30T01:41:23.213Z,16.07
2018-08-30T01:43:51.492Z,19.83
2018-08-30T01:46:19.839Z,20.47
2018-08-30T01:48:48.205Z,23.27
2018-08-30T01:51:16.498Z,23.80
2018-08-30T01:53:46.828Z,25.57
2018-08-30T01:56:15.207Z,25.43
2018-08-30T01:58:43.966Z,26.53
2018-08-30T02:01:12.189Z,24.93
2018-08-30T02:03:40.837Z,27.77
2018-08-30T02:06:08.997Z,26.97
2018-08-30T02:08:37.273Z,27.60
2018-08-30T02:11:05.494Z,28.73
2018-08-30T02:13:37.029Z,28.20
2018-08-30T02:16:05.689Z,27.47
2018-08-30T02:18:33.997Z,27.23
2018-08-30T02:21:02.136Z,27.07
2018-08-30T02:23:30.355Z,26.47
2018-08-30T02:25:58.532Z,27.93
2018-08-30T02:28:26.762Z,28.40
2018-08-30T02:30:55.028Z,29.13
2018-08-30T02:33:23.215Z,25.33
2018-08-30T02:35:51.319Z,24.70
2018-08-30T02:38:19.401Z,24.07
2018-08-30T02:40:47.594Z,23.80
2018-08-30T02:43:15.690Z,21.93
2018-08-30T02:45:43.882Z,23.43
2018-08-30T02:48:11.921Z,22.73
2018-08-30T02:50:40.417Z,25.63
2018-08-30T02:53:08.896Z,24.40
2018-08-30T02:55:37.176Z,24.50
2018-08-30T02:58:06.277Z,25.80
2018-08-30T03:00:34.390Z,26.00
2018-08-30T03:03:02.549Z,25.20
2018-08-30T03:05:31.171Z,24.33
2018-08-30T03:07:59.527Z,23.60
2018-08-30T03:10:30.534Z,22.93
2018-08-30T03:12:58.705Z,22.40
2018-08-30T03:15:30.109Z,23.87
2018-08-30T03:17:58.302Z,24.80
2018-08-30T03:20:26.425Z,22.63
2018-08-30T03:22:54.589Z,22.80
2018-08-30T03:25:22.676Z,21.70
2018-08-30T03:27:50.708Z,22.00
2018-08-30T03:30:18.836Z,20.63
2018-08-30T03:32:46.924Z,18.93
2018-08-30T03:35:15.221Z,18.90
2018-08-30T03:37:44.043Z,18.50
2018-08-30T03:40:12.186Z,17.50
2018-08-30T03:42:40.272Z,18.27
2018-08-30T03:45:08.437Z,14.27
2018-08-30T03:47:36.583Z,14.27
2018-08-30T03:50:04.769Z,17.50
2018-08-30T03:52:32.977Z,11.33
2018-08-30T03:55:01.155Z,10.63
2018-08-30T03:57:29.247Z,10.67
2018-08-30T03:59:57.512Z,10.80
2018-08-30T04:02:25.705Z,11.20
2018-08-30T04:04:53.801Z,10.63
2018-08-30T04:07:21.850Z,8.07
2018-08-30T04:09:50.462Z,10.20
2018-08-30T04:12:18.931Z,6.93
2018-08-30T04:14:47.454Z,6.30
2018-08-30T04:17:16.627Z,6.37
2018-08-30T04:19:45.118Z,7.20
2018-08-30T04:22:13.228Z,7.23
2018-08-30T04:24:45.529Z,7.37
2018-08-30T04:27:14.459Z,7.00
2018-08-30T04:29:42.603Z,6.60
2018-08-30T04:32:10.961Z,6.20
2018-08-30T04:34:39.321Z,5.40
2018-08-30T04:37:07.423Z,5.63
2018-08-30T04:39:35.440Z,7.07
2018-08-30T04:42:03.738Z,4.83
2018-08-30T04:44:31.798Z,4.23
2018-08-30T04:47:00.112Z,4.10
2018-08-30T04:49:28.223Z,6.10
2018-08-30T04:51:56.287Z,10.47
2018-08-30T04:54:24.576Z,3.63
2018-08-30T04:56:52.712Z,3.23
2018-08-30T04:59:20.761Z,5.37
2018-08-30T05:01:49.040Z,3.10
2018-08-30T05:04:18.488Z,2.83
2018-08-30T05:06:46.629Z,2.50
2018-08-30T05:09:14.718Z,4.80
2018-08-30T05:11:42.841Z,3.43
2018-08-30T05:14:11.134Z,2.53
2018-08-30T05:16:39.384Z,2.20
2018-08-30T05:19:08.267Z,2.70
2018-08-30T05:21:36.378Z,1.77
2018-08-30T05:24:04.502Z,2.10
2018-08-30T05:26:33.473Z,1.50
2018-08-30T05:29:01.496Z,1.73
2018-08-30T05:31:32.525Z,1.50
2018-08-30T05:34:00.717Z,1.40
2018-08-30T05:36:28.854Z,1.60
2018-08-30T05:38:57.140Z,1.23
2018-08-30T05:41:25.309Z,1.37
2018-08-30T05:43:53.559Z,1.20
2018-08-30T05:46:22.729Z,1.47
2018-08-30T05:48:50.807Z,1.43
2018-08-30T05:51:20.721Z,1.13
2018-08-30T05:53:48.860Z,1.40
2018-08-30T05:56:17.133Z,1.23
2018-08-30T05:58:45.190Z,1.00
2018-08-30T06:01:13.479Z,1.03
2018-08-30T06:03:41.633Z,1.10
2018-08-30T06:06:09.948Z,1.00
2018-08-30T06:08:38.109Z,1.10
2018-08-30T06:11:06.426Z,1.10
2018-08-30T06:13:34.512Z,0.97
2018-08-30T06:16:02.655Z,1.00
2018-08-30T06:18:30.924Z,1.10
2018-08-30T06:21:00.121Z,1.13
2018-08-30T06:23:28.245Z,1.13
2018-08-30T06:25:57.333Z,1.30
2018-08-30T06:28:25.385Z,1.30
2018-08-30T06:30:53.750Z,1.00
2018-08-30T06:33:21.834Z,1.40
2018-08-30T06:35:50.780Z,1.10
2018-08-30T06:38:20.038Z,1.30
2018-08-30T06:40:48.186Z,1.20
2018-08-30T06:43:16.696Z,1.30
2018-08-30T06:45:48.070Z,1.20
2018-08-30T06:48:16.083Z,1.40
2018-08-30T06:50:45.446Z,1.40
2018-08-30T06:53:13.567Z,1.50
2018-08-30T06:55:45.418Z,1.30
2018-08-30T06:58:13.735Z,1.50
2018-08-30T07:00:41.882Z,1.60
2018-08-30T07:03:10.083Z,1.73
2018-08-30T07:05:38.310Z,1.83
2018-08-30T07:08:06.535Z,2.40
2018-08-30T07:10:34.610Z,2.70
2018-08-30T07:13:02.696Z,3.20
2018-08-30T07:15:30.942Z,3.37
2018-08-30T07:17:59.028Z,3.67
2018-08-30T07:20:27.207Z,3.90
2018-08-30T07:22:56.079Z,4.03
2018-08-30T07:25:24.282Z,4.20
2018-08-30T07:27:52.355Z,4.50
2018-08-30T07:30:20.580Z,5.67
2018-08-30T07:32:51.653Z,4.57
2018-08-30T07:35:19.933Z,4.60
2018-08-30T07:37:48.049Z,5.07
2018-08-30T07:40:17.201Z,4.93
2018-08-30T07:42:45.867Z,5.13
2018-08-30T07:45:13.906Z,5.17
2018-08-30T07:47:42.107Z,5.20
2018-08-30T07:50:10.420Z,5.47
2018-08-30T07:52:38.590Z,6.03
2018-08-30T07:55:06.725Z,5.60
2018-08-30T07:57:35.605Z,6.43
2018-08-30T08:00:05.504Z,6.37
2018-08-30T08:02:34.735Z,6.40
2018-08-30T08:05:02.808Z,6.67
2018-08-30T08:07:31.739Z,6.43
2018-08-30T08:10:00.042Z,6.80
2018-08-30T08:12:29.774Z,6.57
2018-08-30T08:15:00.221Z,5.80
2018-08-30T08:17:28.332Z,6.73
2018-08-30T08:19:56.456Z,6.87
2018-08-30T08:22:27.605Z,6.63
2018-08-30T08:24:56.481Z,6.87
2018-08-30T08:27:25.628Z,6.90
2018-08-30T08:29:54.402Z,7.27
2018-08-30T08:32:24.531Z,7.60
2018-08-30T08:34:52.794Z,7.67
2018-08-30T08:37:20.889Z,7.20
2018-08-30T08:39:49.081Z,9.40
2018-08-30T08:42:20.528Z,7.53
2018-08-30T08:44:48.641Z,7.10
2018-08-30T08:47:19.142Z,7.50
2018-08-30T08:49:48.449Z,6.57
2018-08-30T08:52:18.487Z,7.23
2018-08-30T08:54:46.794Z,6.63
2018-08-30T08:57:15.942Z,6.70
2018-08-30T08:59:43.981Z,6.67
2018-08-30T09:02:13.028Z,6.40
2018-08-30T09:04:41.495Z,6.63
2018-08-30T09:07:09.817Z,6.20
2018-08-30T09:09:38.908Z,6.10
2018-08-30T09:12:07.001Z,6.67
2018-08-30T09:14:35.113Z,6.23
2018-08-30T09:17:04.230Z,5.83
2018-08-30T09:19:33.044Z,5.70
2018-08-30T09:22:01.296Z,6.47
2018-08-30T09:24:29.440Z,5.93
2018-08-30T09:26:58.928Z,6.13
2018-08-30T09:29:27.070Z,5.70
2018-08-30T09:31:55.192Z,5.87
2018-08-30T09:34:23.381Z,5.60
2018-08-30T09:36:52.453Z,6.03
2018-08-30T09:39:22.836Z,5.70
2018-08-30T09:41:51.903Z,5.70
2018-08-30T09:44:20.365Z,6.80
2018-08-30T09:46:49.254Z,6.10
2018-08-30T09:49:17.477Z,5.90
2018-08-30T09:51:46.353Z,6.20
2018-08-30T09:54:14.630Z,6.60
2018-08-30T09:56:42.950Z,6.07
2018-08-30T09:59:11.899Z,7.03
2018-08-30T10:01:49.602Z,6.73
2018-08-30T10:04:18.747Z,6.83
2018-08-30T10:06:47.769Z,7.90
2018-08-30T10:09:16.685Z,7.50
2018-08-30T10:11:44.808Z,7.57
2018-08-30T10:14:13.008Z,8.03
2018-08-30T10:16:41.253Z,8.07
2018-08-30T10:19:11.449Z,7.83
2018-08-30T10:21:40.277Z,8.73
2018-08-30T10:24:09.148Z,8.40
2018-08-30T10:26:40.415Z,8.00
2018-08-30T10:29:10.281Z,8.77
2018-08-30T10:31:39.333Z,9.37
2018-08-30T10:34:09.081Z,8.87
2018-08-30T10:36:37.382Z,9.10
2018-08-30T10:39:07.894Z,10.00
2018-08-30T10:41:36.065Z,10.13
2018-08-30T10:44:05.338Z,9.60
2018-08-30T10:46:34.662Z,8.40
2018-08-30T10:49:04.938Z,9.30
2018-08-30T10:51:35.041Z,9.90
2018-08-30T10:54:04.095Z,9.87
2018-08-30T10:56:32.379Z,9.53
2018-08-30T10:59:02.270Z,11.63
2018-08-30T11:01:30.839Z,10.17
2018-08-30T11:03:59.091Z,8.40
2018-08-30T11:06:27.347Z,8.83
2018-08-30T11:08:55.600Z,8.20
2018-08-30T11:11:24.626Z,6.83
2018-08-30T11:13:52.653Z,8.43
2018-08-30T11:16:21.428Z,8.10
2018-08-30T11:18:51.825Z,7.70
2018-08-30T11:21:23.624Z,7.10
2018-08-30T11:23:54.436Z,7.30
2018-08-30T11:26:25.330Z,6.73
2018-08-30T11:28:54.072Z,6.70
2018-08-30T11:31:22.463Z,7.20
2018-08-30T11:33:50.714Z,6.60
2018-08-30T11:36:18.794Z,7.10
2018-08-30T11:38:47.443Z,7.80
2018-08-30T11:41:15.501Z,7.40
2018-08-30T11:43:43.680Z,7.60
2018-08-30T11:46:11.980Z,7.53
2018-08-30T11:48:40.810Z,7.33
2018-08-30T11:51:12.698Z,6.33
2018-08-30T11:53:40.762Z,6.53
2018-08-30T11:56:10.530Z,6.10
2018-08-30T11:58:38.789Z,6.80
2018-08-30T12:01:10.406Z,6.77
2018-08-30T12:03:38.680Z,20.43
2018-08-30T12:06:07.796Z,6.50
2018-08-30T12:08:37.762Z,6.47
2018-08-30T12:11:06.100Z,9.27
2018-08-30T12:13:34.038Z,6.23
2018-08-30T12:16:03.480Z,6.07
2018-08-30T12:18:32.531Z,5.97
2018-08-30T12:21:02.291Z,5.97
2018-08-30T12:23:30.457Z,7.50
2018-08-30T12:26:01.402Z,6.40
2018-08-30T12:28:31.545Z,7.20
2018-08-30T12:31:00.532Z,7.20
2018-08-30T12:33:28.829Z,6.90
2018-08-30T12:35:57.148Z,6.60
2018-08-30T12:38:25.314Z,6.57
2018-08-30T12:40:55.774Z,6.83
2018-08-30T12:43:24.658Z,6.10
2018-08-30T12:45:52.745Z,7.23
2018-08-30T12:48:20.885Z,6.60
2018-08-30T12:50:49.288Z,6.97
2018-08-30T12:53:18.559Z,7.13
2018-08-30T12:55:46.738Z,8.30
2018-08-30T12:58:15.004Z,8.20
2018-08-30T13:00:43.101Z,8.07
2018-08-30T13:03:11.890Z,7.97
2018-08-30T13:05:40.186Z,7.77
2018-08-30T13:08:09.400Z,7.50
2018-08-30T13:10:38.639Z,7.80
2018-08-30T13:13:07.900Z,6.97
2018-08-30T13:15:38.225Z,8.03
2018-08-30T13:18:07.624Z,6.57
2018-08-30T13:20:37.789Z,6.90
2018-08-30T13:23:05.840Z,6.83
2018-08-30T13:25:37.924Z,7.13
2018-08-30T13:28:05.893Z,6.40
2018-08-30T13:30:34.262Z,5.60
2018-08-30T13:33:03.231Z,6.57
2018-08-30T13:35:31.968Z,5.50
2018-08-30T13:38:00.131Z,5.40
2018-08-30T13:40:29.647Z,5.17
2018-08-30T13:42:59.270Z,6.37
2018-08-30T13:45:28.475Z,4.80
2018-08-30T13:47:57.587Z,5.13
2018-08-30T13:50:26.098Z,4.43
2018-08-30T13:52:55.176Z,4.60
2018-08-30T13:55:23.854Z,4.40
2018-08-30T13:57:52.952Z,4.70
2018-08-30T14:00:22.059Z,4.07
2018-08-30T14:02:51.071Z,4.80
2018-08-30T14:05:20.967Z,4.20
2018-08-30T14:07:49.567Z,4.43
2018-08-30T14:10:18.039Z,4.77
2018-08-30T14:12:48.453Z,4.50
2018-08-30T14:15:16.690Z,5.27
2018-08-30T14:17:45.567Z,4.57
2018-08-30T14:20:13.709Z,4.70
2018-08-30T14:22:41.843Z,4.67
2018-08-30T14:25:10.097Z,5.05
2018-08-30T14:27:39.076Z,5.23
2018-08-30T14:30:09.556Z,4.50
2018-08-30T14:32:38.933Z,4.30
2018-08-30T14:35:09.010Z,4.90
2018-08-30T14:37:37.084Z,4.43
2018-08-30T14:40:19.860Z,4.10
2018-08-30T14:42:47.887Z,3.87
2018-08-30T14:45:16.835Z,3.60
2018-08-30T14:47:46.930Z,3.87
2018-08-30T14:50:17.528Z,4.40
2018-08-30T14:52:47.312Z,3.93
2018-08-30T14:55:16.124Z,3.80
2018-08-30T14:57:44.929Z,3.50
2018-08-30T15:00:15.051Z,4.30
2018-08-30T15:02:44.735Z,3.70
2018-08-30T15:05:15.028Z,3.80
2018-08-30T15:07:47.788Z,3.40
2018-08-30T15:10:17.703Z,2.97
2018-08-30T15:12:46.713Z,4.13
2018-08-30T15:15:16.649Z,3.27
2018-08-30T15:17:45.782Z,3.30
2018-08-30T15:20:14.834Z,3.30
2018-08-30T15:22:43.694Z,6.43
2018-08-30T15:25:11.870Z,3.43
2018-08-30T15:27:43.002Z,3.40
2018-08-30T15:30:11.727Z,3.33
2018-08-30T15:32:41.515Z,3.27
2018-08-30T15:35:11.014Z,3.37
2018-08-30T15:37:40.283Z,3.63
2018-08-30T15:40:10.406Z,3.37
2018-08-30T15:42:39.363Z,4.10
2018-08-30T15:45:07.944Z,4.00
2018-08-30T15:47:36.743Z,3.67
2018-08-30T15:50:06.212Z,3.97
2018-08-30T15:52:35.354Z,3.80
2018-08-30T15:55:04.005Z,3.90
2018-08-30T15:57:32.293Z,4.20
2018-08-30T16:00:00.998Z,3.97
2018-08-30T16:02:29.443Z,4.03
2018-08-30T16:04:57.464Z,4.33
2018-08-30T16:07:25.618Z,4.40
2018-08-30T16:09:53.841Z,4.60
2018-08-30T16:12:22.692Z,4.27
2018-08-30T16:14:51.199Z,3.77
2018-08-30T16:17:20.715Z,4.10
2018-08-30T16:19:49.843Z,4.23
2018-08-30T16:22:17.977Z,4.13
2018-08-30T16:24:46.129Z,4.10
2018-08-30T16:27:15.278Z,4.60
2018-08-30T16:29:43.430Z,3.80
2018-08-30T16:32:11.533Z,3.80
2018-08-30T16:34:41.028Z,4.10
2018-08-30T16:37:09.138Z,4.17
2018-08-30T16:39:38.659Z,4.07
2018-08-30T16:42:09.786Z,4.27
2018-08-30T16:44:38.886Z,3.67
2018-08-30T16:47:07.893Z,3.80
2018-08-30T16:49:38.371Z,4.43
2018-08-30T16:52:08.316Z,4.27
2018-08-30T16:54:36.598Z,4.17
2018-08-30T16:57:06.471Z,4.57
2018-08-30T16:59:36.998Z,4.30
2018-08-30T17:02:06.971Z,4.23
2018-08-30T17:04:35.227Z,4.10
2018-08-30T17:07:05.433Z,4.60
2018-08-30T17:09:36.988Z,4.00
2018-08-30T17:12:07.769Z,4.03
2018-08-30T17:14:36.940Z,4.40
2018-08-30T17:17:05.159Z,3.90
2018-08-30T17:19:33.202Z,4.47
2018-08-30T17:22:02.868Z,4.17
2018-08-30T17:24:34.598Z,4.50
2018-08-30T17:27:02.973Z,4.30
2018-08-30T17:29:31.637Z,4.63
2018-08-30T17:32:00.529Z,4.03
2018-08-30T17:37:05.609Z,4.40
2018-08-30T17:39:35.799Z,4.20
2018-08-30T17:42:05.168Z,4.23
2018-08-30T17:44:33.324Z,4.53
2018-08-30T17:47:01.423Z,4.27
2018-08-30T17:49:30.232Z,4.03
2018-08-30T17:51:58.954Z,4.50
2018-08-30T17:54:27.215Z,3.83
2018-08-30T17:56:56.632Z,4.20
2018-08-30T17:59:26.746Z,4.60
2018-08-30T18:01:57.838Z,5.10
2018-08-30T18:04:28.622Z,4.17
2018-08-30T18:06:59.512Z,4.17
2018-08-30T18:09:28.026Z,4.53
2018-08-30T18:11:57.777Z,5.70
2018-08-30T18:14:27.033Z,4.70
2018-08-30T18:16:56.570Z,5.30
2018-08-30T18:19:26.060Z,5.00
2018-08-30T18:21:55.226Z,4.70
2018-08-30T18:24:24.333Z,4.97
2018-08-30T18:26:54.378Z,8.87
2018-08-30T18:29:27.572Z,6.07
2018-08-30T18:31:57.597Z,4.93
2018-08-30T18:34:31.478Z,5.40
2018-08-30T18:37:05.419Z,5.23
2018-08-30T18:39:54.756Z,6.80
2018-08-30T18:42:55.198Z,7.53
2018-08-30T18:45:28.431Z,6.23
2018-08-30T18:51:28.035Z,4.97
2018-08-30T18:54:08.009Z,5.40
2018-08-30T18:56:39.695Z,6.00
2018-08-30T18:59:12.057Z,5.87
2018-08-30T19:02:04.528Z,6.50
2018-08-30T19:04:38.685Z,6.97
2018-08-30T19:07:32.425Z,6.17
2018-08-30T19:10:14.753Z,5.90
2018-08-30T19:12:44.706Z,6.57
2018-08-30T19:15:19.035Z,5.67
2018-08-30T19:18:10.688Z,6.00
2018-08-30T19:20:40.785Z,5.33
2018-08-30T19:23:09.884Z,5.27
2018-08-30T19:28:32.740Z,4.83
2018-08-30T19:31:01.659Z,4.93
2018-08-30T19:33:30.784Z,5.93
2018-08-30T19:36:13.476Z,5.50
2018-08-30T19:39:09.387Z,5.90
2018-08-30T19:44:55.573Z,4.80
2018-08-30T19:47:39.806Z,6.00
2018-08-30T19:50:52.515Z,5.60
2018-08-30T19:53:47.113Z,5.20
2018-08-30T19:56:42.371Z,5.07
2018-08-30T19:59:24.613Z,5.20
2018-08-30T20:01:55.553Z,5.33
2018-08-30T20:04:24.553Z,5.70
2018-08-30T20:07:31.781Z,5.73
2018-08-30T20:10:22.742Z,5.30
2018-08-30T20:13:02.321Z,5.40
2018-08-30T20:15:51.513Z,5.10
2018-08-30T20:22:29.451Z,5.50
2018-08-30T20:24:59.738Z,5.53
2018-08-30T20:27:38.565Z,5.43
2018-08-30T20:30:11.304Z,5.17
2018-08-30T20:32:41.195Z,5.97
2018-08-30T20:35:19.631Z,5.27
2018-08-30T20:40:45.466Z,5.23
2018-08-30T20:43:15.859Z,5.83
2018-08-30T20:45:50.251Z,4.97
2018-08-30T20:48:19.776Z,5.00
2018-08-30T20:50:49.376Z,4.87
2018-08-30T20:53:25.181Z,4.83
2018-08-30T20:58:31.489Z,4.60
2018-08-30T21:01:06.549Z,5.00
2018-08-30T21:04:03.254Z,4.53
2018-08-30T21:06:37.484Z,4.60
2018-08-30T21:09:10.443Z,5.23
2018-08-30T21:11:41.436Z,5.20
2018-08-30T21:14:10.112Z,5.30
2018-08-30T21:16:42.525Z,4.73
2018-08-30T21:19:12.091Z,4.27
2018-08-30T21:21:46.625Z,5.07
2018-08-30T21:24:17.677Z,4.30
2018-08-30T21:26:47.306Z,4.60
2018-08-30T21:29:16.874Z,5.43
2018-08-30T21:31:47.908Z,5.80
2018-08-30T21:34:20.515Z,5.00
2018-08-30T21:36:52.593Z,4.67
2018-08-30T21:39:22.727Z,4.03
2018-08-30T21:41:52.488Z,4.10
2018-08-30T21:44:23.730Z,3.83
2018-08-30T21:46:53.051Z,3.97
2018-08-30T21:49:23.415Z,3.40
2018-08-30T21:51:53.160Z,3.70
2018-08-30T21:54:23.306Z,4.00
2018-08-30T21:56:53.518Z,3.70
2018-08-30T21:59:30.545Z,4.07
2018-08-30T22:01:59.207Z,4.13
2018-08-30T22:04:28.047Z,4.10
2018-08-30T22:06:57.063Z,3.80
2018-08-30T22:09:33.882Z,4.23
2018-08-30T22:12:06.566Z,3.97
2018-08-30T22:14:37.921Z,4.20
2018-08-30T22:17:11.513Z,3.90
2018-08-30T22:19:43.266Z,4.70
2018-08-30T22:22:18.470Z,4.47
2018-08-30T22:24:47.207Z,4.40
2018-08-30T22:27:18.096Z,4.23
2018-08-30T22:29:46.203Z,4.63
2018-08-30T22:32:16.710Z,4.70
2018-08-30T22:34:46.514Z,4.33
2018-08-30T22:37:15.371Z,3.90
2018-08-30T22:39:49.519Z,3.87
2018-08-30T22:42:18.501Z,3.90
2018-08-30T22:47:28.111Z,3.87
2018-08-30T22:49:57.685Z,3.67
2018-08-30T22:52:28.799Z,3.73
2018-08-30T22:54:59.525Z,4.17
2018-08-30T22:57:36.924Z,4.30
2018-08-30T23:00:18.457Z,4.83
2018-08-30T23:02:51.996Z,4.50
2018-08-30T23:05:25.872Z,4.07
2018-08-30T23:07:53.874Z,4.47
2018-08-30T23:10:22.665Z,4.73
2018-08-30T23:12:57.703Z,4.67
2018-08-30T23:15:26.714Z,4.33
2018-08-30T23:17:57.591Z,4.37
2018-08-30T23:20:31.101Z,3.33
2018-08-30T23:23:01.120Z,3.30
2018-08-30T23:25:34.258Z,2.83
2018-08-30T23:28:07.791Z,3.00
2018-08-30T23:30:36.630Z,3.23
2018-08-30T23:33:05.720Z,3.40
2018-08-30T23:35:53.240Z,4.13
2018-08-30T23:38:22.963Z,5.60
2018-08-30T23:41:04.117Z,5.97
2018-08-30T23:43:38.236Z,5.20
2018-08-30T23:46:06.958Z,5.77
2018-08-30T23:48:38.930Z,5.90
2018-08-30T23:51:08.045Z,5.20
2018-08-30T23:53:37.571Z,5.53
2018-08-30T23:56:07.269Z,5.20
2018-08-30T23:58:47.189Z,5.10
